Elm Park, United Kingdom
Current Conditions -  °F | °C
As of 7:20 PM on Thursday 30 Oct 2014 (Local Time) from EGLC Reporting Station
Clear Clear  
Wind Chill: 61°   Ceiling: Unl
Heat Index: 61°   Visibility: 6mi
Dew Point: 57°   Wind: 5mph
Humidity: 88%   Direction: 160°SSE
Pressure: 30.09"   Gusts: NA
Location:  51.55°N, 0.2°E
Report Text: EGLC 301920Z 16004KT 110V220 CAVOK 16/14 Q1019
Loading
Personal Weather Stations






























Interactive Weather Map
Tropical Storm Tracking
New forecast layout! Learn more

10-Day Weather Forecast

Advertisements
Track Severe Weather on mobile